createdAt,value
2022-11-16T00:01:16.402Z,22.85
2022-11-16T00:03:42.900Z,21.30
2022-11-16T00:06:10.709Z,21.55
2022-11-16T00:08:41.939Z,18.80
2022-11-16T00:11:16.386Z,18.67
2022-11-16T00:13:43.734Z,22.08
2022-11-16T00:16:16.448Z,20.45
2022-11-16T00:18:44.209Z,21.08
2022-11-16T00:21:10.694Z,18.95
2022-11-16T00:23:41.191Z,21.10
2022-11-16T00:26:09.473Z,18.73
2022-11-16T00:28:36.213Z,20.15
2022-11-16T00:31:06.368Z,19.38
2022-11-16T00:33:33.869Z,19.30
2022-11-16T00:36:05.786Z,20.40
2022-11-16T00:38:32.663Z,19.83
2022-11-16T00:40:59.524Z,19.30
2022-11-16T00:43:26.501Z,23.67
2022-11-16T00:45:53.193Z,19.63
2022-11-16T00:48:19.866Z,18.70
2022-11-16T00:50:46.918Z,21.23
2022-11-16T00:53:15.171Z,19.85
2022-11-16T00:55:43.088Z,19.35
2022-11-16T00:58:09.706Z,20.08
2022-11-16T01:00:36.676Z,19.90
2022-11-16T01:03:03.478Z,20.38
2022-11-16T01:05:30.747Z,18.60
2022-11-16T01:07:57.369Z,19.55
2022-11-16T01:10:25.382Z,18.75
2022-11-16T01:12:53.018Z,17.73
2022-11-16T01:15:21.826Z,18.45
2022-11-16T01:17:48.435Z,19.45
2022-11-16T01:20:17.943Z,18.70
2022-11-16T01:22:45.086Z,17.75
2022-11-16T01:25:13.107Z,18.50
2022-11-16T01:27:40.016Z,19.05
2022-11-16T01:30:08.408Z,18.80
2022-11-16T01:32:35.285Z,20.08
2022-11-16T01:35:01.875Z,18.02
2022-11-16T01:37:30.002Z,18.25
2022-11-16T01:39:56.557Z,19.73
2022-11-16T01:42:26.819Z,18.90
2022-11-16T01:45:00.541Z,16.27
2022-11-16T01:47:27.670Z,18.88
2022-11-16T01:50:13.049Z,18.25
2022-11-16T01:52:45.942Z,17.08
2022-11-16T01:55:13.064Z,17.88
2022-11-16T01:57:42.348Z,16.42
2022-11-16T02:00:11.283Z,18.02
2022-11-16T02:02:37.774Z,18.98
2022-11-16T02:05:05.039Z,17.50
2022-11-16T02:08:00.256Z,18.92
2022-11-16T02:10:42.732Z,17.85
2022-11-16T02:13:23.662Z,16.38
2022-11-16T02:16:01.829Z,18.00
2022-11-16T02:18:36.988Z,18.30
2022-11-16T02:21:21.353Z,17.85
2022-11-16T02:26:57.852Z,16.38
2022-11-16T02:29:33.752Z,17.55
2022-11-16T02:32:08.338Z,18.65
2022-11-16T02:34:41.105Z,16.88
2022-11-16T02:37:10.755Z,17.70
2022-11-16T02:39:39.281Z,18.00
2022-11-16T02:42:10.522Z,18.77
2022-11-16T02:44:43.736Z,19.73
2022-11-16T02:47:17.034Z,19.23
2022-11-16T02:49:48.532Z,17.80
2022-11-16T02:52:16.023Z,23.92
2022-11-16T02:54:42.453Z,18.05
2022-11-16T02:57:08.798Z,17.20
2022-11-16T02:59:44.264Z,18.27
2022-11-16T03:02:25.680Z,16.42
2022-11-16T03:05:01.371Z,19.13
2022-11-16T03:07:33.451Z,21.25
2022-11-16T03:10:01.256Z,20.40
2022-11-16T03:12:32.072Z,22.10
2022-11-16T03:15:02.517Z,22.45
2022-11-16T03:17:39.229Z,21.10
2022-11-16T03:20:11.403Z,19.73
2022-11-16T03:22:51.046Z,19.85
2022-11-16T03:25:20.384Z,19.73
2022-11-16T03:27:55.517Z,20.30
2022-11-16T03:30:24.555Z,20.92
2022-11-16T03:33:27.635Z,20.60
2022-11-16T03:38:41.137Z,19.98
2022-11-16T03:41:09.698Z,20.48
2022-11-16T03:43:37.982Z,22.58
2022-11-16T03:46:05.708Z,20.63
2022-11-16T03:48:35.778Z,20.67
2022-11-16T03:51:03.561Z,21.88
2022-11-16T03:53:30.011Z,22.58
2022-11-16T03:55:56.531Z,22.35
2022-11-16T03:58:22.953Z,20.45
2022-11-16T04:00:49.421Z,21.15
2022-11-16T04:03:15.930Z,21.38
2022-11-16T04:06:00.684Z,21.13
2022-11-16T04:08:45.676Z,18.95
2022-11-16T04:11:33.656Z,20.35
2022-11-16T04:14:19.033Z,20.42
2022-11-16T04:17:03.951Z,22.52
2022-11-16T04:19:48.727Z,21.65
2022-11-16T04:22:39.799Z,22.98
2022-11-16T04:25:14.112Z,23.65
2022-11-16T04:27:59.218Z,24.40
2022-11-16T04:30:25.826Z,23.15
2022-11-16T04:33:10.831Z,23.17
2022-11-16T04:35:56.194Z,21.65
2022-11-16T04:38:22.740Z,24.63
2022-11-16T04:40:49.209Z,24.67
2022-11-16T04:43:15.680Z,23.52
2022-11-16T04:46:00.884Z,29.75
2022-11-16T04:48:27.322Z,27.42
2022-11-16T04:50:53.780Z,25.88
2022-11-16T04:53:22.582Z,23.10
2022-11-16T04:55:51.021Z,25.45
2022-11-16T04:58:18.978Z,26.98
2022-11-16T05:00:45.469Z,28.17
2022-11-16T05:03:11.902Z,24.65
2022-11-16T05:05:38.388Z,27.30
2022-11-16T05:08:04.994Z,25.98
2022-11-16T05:10:31.451Z,26.48
2022-11-16T05:12:57.893Z,28.13
2022-11-16T05:15:24.435Z,23.02
2022-11-16T05:17:51.495Z,26.00
2022-11-16T05:20:36.355Z,25.00
2022-11-16T05:23:02.785Z,26.58
2022-11-16T05:25:33.858Z,24.65
2022-11-16T05:28:03.056Z,26.80
2022-11-16T05:30:29.736Z,27.05
2022-11-16T05:32:56.231Z,25.90
2022-11-16T05:35:22.720Z,29.67
2022-11-16T05:37:49.235Z,28.83
2022-11-16T05:40:15.806Z,28.85
2022-11-16T05:42:42.269Z,28.02
2022-11-16T05:45:09.016Z,27.17
2022-11-16T05:47:35.457Z,28.05
2022-11-16T05:50:02.067Z,25.95
2022-11-16T05:52:28.496Z,26.90
2022-11-16T05:54:55.054Z,26.77
2022-11-16T05:57:21.570Z,25.80
2022-11-16T05:59:47.988Z,28.02
2022-11-16T06:02:14.476Z,25.10
2022-11-16T06:04:40.920Z,26.33
2022-11-16T06:07:07.381Z,26.95
2022-11-16T06:09:33.848Z,29.00
2022-11-16T06:12:00.286Z,27.95
2022-11-16T06:14:26.735Z,26.77
2022-11-16T06:16:53.309Z,26.02
2022-11-16T06:19:19.720Z,26.42
2022-11-16T06:21:46.153Z,27.33
2022-11-16T06:24:12.743Z,25.65
2022-11-16T06:26:39.191Z,24.80
2022-11-16T06:29:05.606Z,24.20
2022-11-16T06:31:32.075Z,25.75
2022-11-16T06:33:58.557Z,26.17
2022-11-16T06:36:32.188Z,25.25
2022-11-16T06:39:04.783Z,25.90
2022-11-16T06:42:00.895Z,26.17
2022-11-16T06:44:27.330Z,24.17
2022-11-16T06:46:53.856Z,25.73
2022-11-16T06:49:21.028Z,24.55
2022-11-16T06:51:47.738Z,27.77
2022-11-16T06:54:14.174Z,25.10
2022-11-16T06:56:40.680Z,25.35
2022-11-16T06:59:07.134Z,24.90
2022-11-16T07:01:33.763Z,22.45
2022-11-16T07:04:00.249Z,23.00
2022-11-16T07:06:26.693Z,24.10
2022-11-16T07:08:53.122Z,22.88
2022-11-16T07:11:20.318Z,24.23
2022-11-16T07:13:48.279Z,24.23
2022-11-16T07:16:15.014Z,23.33
2022-11-16T07:18:41.745Z,23.38
2022-11-16T07:21:08.793Z,23.58
2022-11-16T07:23:36.050Z,23.98
2022-11-16T07:26:04.535Z,24.02
2022-11-16T07:28:31.893Z,23.40
2022-11-16T07:31:07.363Z,23.67
2022-11-16T07:33:34.479Z,20.90
2022-11-16T07:36:02.771Z,22.05
2022-11-16T07:38:30.659Z,24.25
2022-11-16T07:41:17.946Z,22.40
2022-11-16T07:43:49.913Z,24.85
2022-11-16T07:46:45.803Z,19.15
2022-11-16T07:49:11.375Z,22.23
2022-11-16T07:51:38.109Z,21.73
2022-11-16T07:54:04.639Z,22.20
2022-11-16T07:56:31.084Z,21.52
2022-11-16T07:58:59.001Z,22.17
2022-11-16T08:01:25.461Z,21.92
2022-11-16T08:03:54.009Z,25.13
2022-11-16T08:06:24.487Z,22.10
2022-11-16T08:08:55.209Z,26.05
2022-11-16T08:11:24.901Z,22.02
2022-11-16T08:13:51.351Z,21.35
2022-11-16T08:16:20.283Z,22.33
2022-11-16T08:18:47.192Z,21.08
2022-11-16T08:21:15.635Z,21.35
2022-11-16T08:23:42.186Z,21.85
2022-11-16T08:26:17.844Z,21.88
2022-11-16T08:28:45.926Z,21.52
2022-11-16T08:31:21.390Z,21.73
2022-11-16T08:33:52.013Z,21.17
2022-11-16T08:36:19.043Z,19.90
2022-11-16T08:38:50.086Z,19.88
2022-11-16T08:41:18.291Z,19.35
2022-11-16T08:43:47.228Z,21.40
2022-11-16T08:46:14.552Z,17.40
2022-11-16T08:48:41.755Z,20.45
2022-11-16T08:51:17.420Z,21.50
2022-11-16T08:53:45.311Z,19.58
2022-11-16T08:56:13.738Z,18.08
2022-11-16T08:58:46.767Z,18.60
2022-11-16T09:01:18.984Z,19.48
2022-11-16T09:03:45.786Z,18.73
2022-11-16T09:06:12.616Z,19.73
2022-11-16T09:08:40.874Z,17.75
2022-11-16T09:11:09.445Z,18.10
2022-11-16T09:13:35.949Z,17.77
2022-11-16T09:16:03.437Z,17.15
2022-11-16T09:18:31.275Z,16.80
2022-11-16T09:20:57.863Z,14.23
2022-11-16T09:23:25.737Z,16.13
2022-11-16T09:25:54.392Z,14.45
2022-11-16T09:28:22.059Z,13.75
2022-11-16T09:30:51.298Z,12.13
2022-11-16T09:33:18.155Z,14.43
2022-11-16T09:35:44.616Z,14.48
2022-11-16T09:38:13.617Z,15.13
2022-11-16T09:40:46.092Z,14.18
2022-11-16T09:43:46.162Z,13.93
2022-11-16T09:46:36.805Z,12.85
2022-11-16T09:49:17.264Z,13.70
2022-11-16T09:51:48.315Z,13.73
2022-11-16T09:54:20.289Z,13.57
2022-11-16T09:56:49.131Z,12.57
2022-11-16T09:59:23.331Z,13.38
2022-11-16T10:01:52.713Z,12.75
2022-11-16T10:04:28.153Z,14.60
2022-11-16T10:07:05.894Z,13.88
2022-11-16T10:09:32.890Z,15.05
2022-11-16T10:12:17.070Z,15.02
2022-11-16T10:15:30.655Z,16.30
2022-11-16T10:18:18.671Z,16.13
2022-11-16T10:21:03.832Z,15.90
2022-11-16T10:23:37.364Z,15.20
2022-11-16T10:26:34.784Z,12.65
2022-11-16T10:29:25.139Z,15.75
2022-11-16T10:32:03.458Z,14.48
2022-11-16T10:35:06.393Z,14.95
2022-11-16T10:37:36.732Z,15.15
2022-11-16T10:40:26.088Z,14.75
2022-11-16T10:43:04.784Z,15.15
2022-11-16T10:45:49.614Z,15.32
2022-11-16T10:48:31.445Z,14.38
2022-11-16T10:50:58.158Z,16.73
2022-11-16T10:53:32.469Z,15.73
2022-11-16T10:56:17.781Z,14.82
2022-11-16T10:58:52.257Z,15.55
2022-11-16T11:01:32.385Z,15.20
2022-11-16T11:04:16.884Z,16.63
2022-11-16T11:06:44.264Z,15.60
2022-11-16T11:09:27.536Z,17.40
2022-11-16T11:12:38.332Z,14.95
2022-11-16T11:15:10.889Z,16.17
2022-11-16T11:17:47.847Z,15.27
2022-11-16T11:20:17.556Z,14.85
2022-11-16T11:22:52.751Z,16.38
2022-11-16T11:25:20.550Z,16.13
2022-11-16T11:27:47.932Z,16.92
2022-11-16T11:30:22.904Z,17.27
2022-11-16T11:32:53.298Z,15.50
2022-11-16T11:35:31.738Z,16.67
2022-11-16T11:38:07.469Z,16.25
2022-11-16T11:40:34.639Z,16.50
2022-11-16T11:43:03.898Z,16.25
2022-11-16T11:45:44.836Z,15.20
2022-11-16T11:48:42.300Z,16.38
2022-11-16T11:51:20.815Z,16.05
2022-11-16T11:54:02.592Z,17.30
2022-11-16T11:56:31.930Z,15.85
2022-11-16T11:58:58.773Z,18.52
2022-11-16T12:01:48.109Z,18.80
2022-11-16T12:04:40.627Z,15.35
2022-11-16T12:07:22.449Z,15.60
2022-11-16T12:09:48.938Z,17.23
2022-11-16T12:12:32.294Z,15.00
2022-11-16T12:15:23.527Z,15.73
2022-11-16T12:18:15.490Z,15.80
2022-11-16T12:21:04.828Z,15.13
2022-11-16T12:23:54.505Z,15.90
2022-11-16T12:26:44.846Z,14.88
2022-11-16T12:29:33.214Z,15.23
2022-11-16T12:32:16.363Z,14.90
2022-11-16T12:35:01.698Z,16.15
2022-11-16T12:37:39.355Z,15.93
2022-11-16T12:40:29.470Z,15.18
2022-11-16T12:43:24.897Z,15.45
2022-11-16T12:46:20.334Z,15.20
2022-11-16T12:49:24.258Z,14.48
2022-11-16T12:52:23.970Z,15.82
2022-11-16T12:58:01.830Z,14.70
2022-11-16T13:00:32.565Z,14.68
2022-11-16T13:03:19.721Z,14.63
2022-11-16T13:06:16.853Z,12.50
2022-11-16T13:09:03.108Z,14.18
2022-11-16T13:11:38.833Z,12.73
2022-11-16T13:14:10.892Z,13.75
2022-11-16T13:16:37.315Z,13.68
2022-11-16T13:19:07.362Z,13.93
2022-11-16T13:21:57.002Z,13.05
2022-11-16T13:24:37.843Z,12.27
2022-11-16T13:27:38.655Z,12.90
2022-11-16T13:30:22.166Z,12.40
2022-11-16T13:33:22.328Z,12.68
2022-11-16T13:35:48.788Z,13.75
2022-11-16T13:38:52.264Z,13.40
2022-11-16T13:41:36.684Z,12.95
2022-11-16T13:44:10.719Z,12.88
2022-11-16T13:46:56.227Z,12.45
2022-11-16T13:49:40.876Z,12.27
2022-11-16T13:57:34.388Z,11.95
2022-11-16T14:02:36.181Z,11.88
2022-11-16T14:05:04.753Z,11.25
2022-11-16T14:07:47.414Z,13.23
2022-11-16T14:10:33.909Z,11.18
2022-11-16T14:13:04.746Z,10.60
2022-11-16T14:15:36.390Z,11.07
2022-11-16T14:20:58.583Z,11.73
2022-11-16T14:23:46.575Z,11.15
2022-11-16T14:26:22.081Z,10.98
2022-11-16T14:29:06.763Z,11.43
2022-11-16T14:31:49.142Z,11.50
2022-11-16T14:34:20.908Z,11.55
2022-11-16T14:36:48.487Z,10.50
2022-11-16T14:39:23.382Z,11.05
2022-11-16T14:41:50.284Z,10.77
2022-11-16T14:44:24.495Z,10.80
2022-11-16T14:46:51.422Z,10.82
2022-11-16T14:49:18.757Z,12.07
2022-11-16T14:51:51.554Z,10.73
2022-11-16T14:54:48.877Z,10.73
2022-11-16T14:57:20.963Z,10.07
2022-11-16T14:59:47.976Z,10.90
2022-11-16T15:02:24.402Z,11.20
2022-11-16T15:04:52.668Z,10.20
2022-11-16T15:07:22.337Z,10.80
2022-11-16T15:09:52.187Z,10.27
2022-11-16T15:12:40.901Z,10.82
2022-11-16T15:15:12.568Z,9.63
2022-11-16T15:20:34.424Z,9.60
2022-11-16T15:23:02.985Z,9.80
2022-11-16T15:25:36.525Z,9.93
2022-11-16T15:28:08.095Z,10.43
2022-11-16T15:30:37.515Z,8.85
2022-11-16T15:33:10.574Z,8.60
2022-11-16T15:35:38.032Z,9.07
2022-11-16T15:38:15.779Z,8.75
2022-11-16T15:40:46.594Z,9.27
2022-11-16T15:43:14.517Z,8.60
2022-11-16T15:45:42.615Z,8.60
2022-11-16T15:48:18.590Z,8.40
2022-11-16T15:51:03.044Z,7.57
2022-11-16T15:53:44.150Z,7.90
2022-11-16T15:56:19.492Z,7.85
2022-11-16T15:58:46.410Z,7.88
2022-11-16T16:01:17.162Z,8.15
2022-11-16T16:03:55.757Z,7.90
2022-11-16T16:06:47.927Z,7.78
2022-11-16T16:09:25.912Z,8.32
2022-11-16T16:11:54.047Z,9.40
2022-11-16T16:14:26.904Z,8.73
2022-11-16T16:16:56.581Z,10.60
2022-11-16T16:19:44.226Z,8.70
2022-11-16T16:22:25.594Z,9.63
2022-11-16T16:24:52.507Z,9.48
2022-11-16T16:27:28.049Z,9.30
2022-11-16T16:29:57.303Z,9.45
2022-11-16T16:32:29.648Z,9.73
2022-11-16T16:34:58.670Z,10.45
2022-11-16T16:37:26.783Z,9.43
2022-11-16T16:39:53.303Z,9.02
2022-11-16T16:42:20.104Z,9.05
2022-11-16T16:44:47.767Z,9.70
2022-11-16T16:47:15.737Z,9.15
2022-11-16T16:49:42.187Z,8.60
2022-11-16T16:52:12.330Z,8.38
2022-11-16T16:54:39.565Z,9.50
2022-11-16T16:57:06.091Z,8.80
2022-11-16T16:59:32.657Z,8.65
2022-11-16T17:01:59.353Z,10.13
2022-11-16T17:04:25.849Z,9.75
2022-11-16T17:06:54.058Z,10.88
2022-11-16T17:09:20.727Z,10.27
2022-11-16T17:11:47.587Z,9.43
2022-11-16T17:14:14.046Z,9.40
2022-11-16T17:16:40.639Z,10.10
2022-11-16T17:19:07.089Z,9.13
2022-11-16T17:21:33.551Z,9.32
2022-11-16T17:23:59.985Z,9.98
2022-11-16T17:26:29.428Z,8.60
2022-11-16T17:28:57.248Z,9.00
2022-11-16T17:31:25.122Z,8.15
2022-11-16T17:33:52.210Z,9.30
2022-11-16T17:36:19.011Z,9.02
2022-11-16T17:38:45.839Z,8.43
2022-11-16T17:41:14.843Z,8.55
2022-11-16T17:43:43.396Z,8.05
2022-11-16T17:46:21.206Z,7.63
2022-11-16T17:48:48.608Z,7.35
2022-11-16T17:51:20.898Z,8.32
2022-11-16T17:53:47.572Z,7.63
2022-11-16T17:56:15.825Z,7.25
2022-11-16T17:58:42.507Z,7.90
2022-11-16T18:01:09.011Z,7.80
2022-11-16T18:03:36.737Z,7.53
2022-11-16T18:06:06.143Z,7.28
2022-11-16T18:08:33.605Z,7.05
2022-11-16T18:11:11.831Z,6.95
2022-11-16T18:13:38.863Z,6.70
2022-11-16T18:16:07.401Z,7.50
2022-11-16T18:18:34.280Z,6.00
2022-11-16T18:21:01.435Z,7.78
2022-11-16T18:23:28.971Z,6.65
2022-11-16T18:25:55.960Z,7.32
2022-11-16T18:28:23.055Z,6.68
2022-11-16T18:30:49.601Z,7.22
2022-11-16T18:33:16.579Z,6.70
2022-11-16T18:35:43.630Z,6.47
2022-11-16T18:38:13.180Z,6.15
2022-11-16T18:40:40.310Z,6.28
2022-11-16T18:43:12.619Z,6.22
2022-11-16T18:45:39.180Z,5.88
2022-11-16T18:48:05.774Z,5.75
2022-11-16T18:50:32.360Z,5.80
2022-11-16T18:52:58.832Z,5.47
2022-11-16T18:55:25.462Z,6.75
2022-11-16T18:57:51.906Z,6.28
2022-11-16T19:00:19.478Z,6.15
2022-11-16T19:02:46.036Z,5.65
2022-11-16T19:05:12.650Z,5.80
2022-11-16T19:07:39.145Z,6.40
2022-11-16T19:10:06.354Z,5.47
2022-11-16T19:12:32.998Z,5.25
2022-11-16T19:15:00.314Z,5.93
2022-11-16T19:17:27.160Z,5.85
2022-11-16T19:19:53.727Z,6.35
2022-11-16T19:22:20.601Z,5.80
2022-11-16T19:24:47.168Z,6.10
2022-11-16T19:27:13.637Z,5.32
2022-11-16T19:29:40.116Z,5.45
2022-11-16T19:32:06.680Z,6.25
2022-11-16T19:34:33.581Z,5.63
2022-11-16T19:37:00.160Z,6.07
2022-11-16T19:39:26.920Z,4.93
2022-11-16T19:41:53.375Z,6.07
2022-11-16T19:44:20.115Z,5.32
2022-11-16T19:46:48.201Z,5.80
2022-11-16T19:49:20.165Z,6.10
2022-11-16T19:51:47.000Z,6.22
2022-11-16T19:54:15.036Z,5.53
2022-11-16T19:56:42.343Z,6.35
2022-11-16T19:59:08.863Z,6.15
2022-11-16T20:01:35.462Z,5.15
2022-11-16T20:04:03.653Z,6.03
2022-11-16T20:06:32.475Z,5.40
2022-11-16T20:09:02.220Z,5.72
2022-11-16T20:11:30.680Z,6.10
2022-11-16T20:13:58.193Z,5.63
2022-11-16T20:16:27.445Z,5.53
2022-11-16T20:18:54.823Z,6.03
2022-11-16T20:21:23.520Z,6.28
2022-11-16T20:23:53.981Z,6.43
2022-11-16T20:26:21.687Z,6.20
2022-11-16T20:29:12.538Z,5.80
2022-11-16T20:31:42.554Z,5.03
2022-11-16T20:34:14.513Z,5.95
2022-11-16T20:36:43.303Z,5.68
2022-11-16T20:39:27.783Z,5.38
2022-11-16T20:41:54.345Z,6.28
2022-11-16T20:44:23.726Z,6.20
2022-11-16T20:46:52.618Z,6.25
2022-11-16T20:49:22.378Z,6.28
2022-11-16T20:51:50.438Z,6.18
2022-11-16T20:54:17.303Z,6.20
2022-11-16T20:56:44.504Z,6.72
2022-11-16T20:59:11.043Z,6.97
2022-11-16T21:01:37.758Z,6.93
2022-11-16T21:04:06.521Z,6.55
2022-11-16T21:06:33.659Z,6.70
2022-11-16T21:09:00.756Z,6.10
2022-11-16T21:11:30.285Z,6.00
2022-11-16T21:14:16.167Z,7.13
2022-11-16T21:16:42.816Z,7.03
2022-11-16T21:19:09.546Z,6.88
2022-11-16T21:21:36.137Z,6.15
2022-11-16T21:24:02.811Z,6.40
2022-11-16T21:26:31.375Z,6.15
2022-11-16T21:29:04.717Z,6.03
2022-11-16T21:31:34.447Z,7.13
2022-11-16T21:34:01.353Z,6.53
2022-11-16T21:36:30.472Z,5.50
2022-11-16T21:38:58.269Z,6.53
2022-11-16T21:41:32.452Z,6.32
2022-11-16T21:43:59.020Z,6.78
2022-11-16T21:46:26.613Z,6.20
2022-11-16T21:48:55.414Z,5.80
2022-11-16T21:51:24.864Z,6.13
2022-11-16T21:53:52.821Z,6.07
2022-11-16T21:56:22.256Z,6.00
2022-11-16T21:58:54.122Z,6.07
2022-11-16T22:01:21.800Z,6.20
2022-11-16T22:04:08.737Z,5.93
2022-11-16T22:06:54.122Z,6.28
2022-11-16T22:09:21.039Z,5.90
2022-11-16T22:11:48.339Z,6.05
2022-11-16T22:14:16.983Z,5.53
2022-11-16T22:16:44.523Z,5.82
2022-11-16T22:19:11.183Z,6.28
2022-11-16T22:21:37.683Z,6.15
2022-11-16T22:24:06.496Z,6.13
2022-11-16T22:26:40.481Z,6.03
2022-11-16T22:29:07.228Z,6.38
2022-11-16T22:31:34.060Z,6.28
2022-11-16T22:34:01.463Z,5.78
2022-11-16T22:36:27.985Z,6.10
2022-11-16T22:38:57.082Z,6.40
2022-11-16T22:41:23.741Z,6.93
2022-11-16T22:43:50.417Z,5.85
2022-11-16T22:46:17.064Z,6.15
2022-11-16T22:48:44.990Z,6.07
2022-11-16T22:51:20.123Z,6.32
2022-11-16T22:53:46.739Z,4.97
2022-11-16T22:56:13.472Z,6.20
2022-11-16T22:58:45.009Z,6.28
2022-11-16T23:01:15.227Z,5.70
2022-11-16T23:03:42.026Z,6.57
2022-11-16T23:06:09.674Z,6.38
2022-11-16T23:08:36.619Z,5.82
2022-11-16T23:11:24.937Z,6.63
2022-11-16T23:14:11.547Z,6.40
2022-11-16T23:16:38.801Z,5.75
2022-11-16T23:19:28.022Z,6.45
2022-11-16T23:22:15.310Z,7.35
2022-11-16T23:25:01.201Z,6.38
2022-11-16T23:27:33.584Z,6.88
2022-11-16T23:30:05.367Z,6.57
2022-11-16T23:32:34.517Z,6.57
2022-11-16T23:35:01.026Z,7.00
2022-11-16T23:37:27.455Z,6.43
2022-11-16T23:39:53.920Z,7.35
2022-11-16T23:42:39.148Z,6.60
2022-11-16T23:45:06.098Z,7.00
2022-11-16T23:47:32.567Z,7.25
2022-11-16T23:49:59.078Z,6.65
2022-11-16T23:52:25.570Z,6.75
2022-11-16T23:54:52.151Z,6.68
2022-11-16T23:57:18.579Z,6.38
2022-11-16T23:59:45.098Z,7.07
